Time;durP1;ratioP1;P1;durP2;ratioP2;P2;SDS_P1;SDS_P2;PMS_P1;PMS_P2;Temp;Humidity;BMP_temperature;BMP_pressure;BME280_temperature;BME280_humidity;BME280_pressure;Samples;Min_cycle;Max_cycle;Signal;HPM_P1;HPM_P2
2020/12/01 00:00:18;;;;;;;12.03;8.70;;;5.80;99.90;;;;;;5092428;28;20761;-72
2020/12/01 00:02:44;;;;;;;12.00;9.47;;;5.80;99.90;;;;;;5092435;28;20742;-72
2020/12/01 00:05:12;;;;;;;9.63;7.50;;;5.80;99.90;;;;;;5092032;28;20503;-72
2020/12/01 00:07:38;;;;;;;12.73;7.90;;;5.80;99.90;;;;;;5092250;28;20419;-72
2020/12/01 00:10:04;;;;;;;11.70;8.17;;;5.80;99.90;;;;;;5093131;28;20455;-72
2020/12/01 00:12:30;;;;;;;19.10;9.00;;;5.70;99.90;;;;;;5093326;28;20420;-73
2020/12/01 00:14:56;;;;;;;12.80;8.67;;;5.70;99.90;;;;;;5093572;28;20813;-72
2020/12/01 00:17:21;;;;;;;12.33;9.17;;;5.70;99.90;;;;;;5093730;28;20205;-72
2020/12/01 00:19:47;;;;;;;15.27;9.87;;;5.60;99.90;;;;;;5091704;28;20292;-72
2020/12/01 00:22:13;;;;;;;10.53;8.17;;;5.70;99.90;;;;;;5091925;28;20702;-71
2020/12/01 00:24:39;;;;;;;12.40;9.80;;;5.60;99.90;;;;;;5091904;28;20201;-72
2020/12/01 00:27:04;;;;;;;15.80;10.63;;;5.60;99.90;;;;;;5092145;28;20259;-72
2020/12/01 00:29:30;;;;;;;13.20;9.60;;;5.60;99.90;;;;;;5091558;28;20605;-72
2020/12/01 00:31:56;;;;;;;15.33;9.20;;;5.60;99.90;;;;;;5091806;28;20670;-72
2020/12/01 00:34:21;;;;;;;13.70;10.23;;;5.60;99.90;;;;;;5091198;28;20256;-72
2020/12/01 00:36:47;;;;;;;12.23;9.40;;;5.60;99.90;;;;;;5091665;28;20561;-72
2020/12/01 00:39:13;;;;;;;10.83;7.70;;;5.60;99.90;;;;;;5090508;28;20200;-73
2020/12/01 00:41:38;;;;;;;11.07;8.77;;;5.60;99.90;;;;;;5090620;28;20576;-72
2020/12/01 00:44:04;;;;;;;12.97;9.43;;;5.50;99.90;;;;;;5092008;28;20166;-72
2020/12/01 00:46:30;;;;;;;11.00;8.20;;;5.60;99.90;;;;;;5091607;28;20541;-72
2020/12/01 00:48:56;;;;;;;17.10;8.10;;;5.70;99.90;;;;;;5090029;28;20462;-72
2020/12/01 00:51:22;;;;;;;13.00;8.43;;;5.80;99.90;;;;;;5091251;28;20425;-72
2020/12/01 00:53:47;;;;;;;10.90;8.03;;;5.80;99.90;;;;;;5091855;28;20252;-71
2020/12/01 00:56:20;;;;;;;13.87;10.00;;;5.70;99.90;;;;;;5091959;28;20223;-72
2020/12/01 00:58:45;;;;;;;12.33;9.30;;;5.60;99.90;;;;;;5091666;28;20280;-71
2020/12/01 01:01:11;;;;;;;12.43;9.67;;;5.70;99.90;;;;;;5090223;28;20991;-72
2020/12/01 01:03:37;;;;;;;12.80;8.73;;;5.70;99.90;;;;;;5091617;28;20248;-72
2020/12/01 01:06:02;;;;;;;11.03;8.60;;;5.70;99.90;;;;;;5091799;28;20188;-72
2020/12/01 01:08:28;;;;;;;11.13;9.70;;;5.60;99.90;;;;;;5091515;28;20276;-72
2020/12/01 01:10:55;;;;;;;16.10;9.70;;;5.60;99.90;;;;;;5091095;28;20565;-71
2020/12/01 01:13:20;;;;;;;11.63;9.70;;;5.60;99.90;;;;;;5091684;28;20662;-72
2020/12/01 01:15:46;;;;;;;12.27;9.67;;;5.60;99.90;;;;;;5091483;28;20469;-72
2020/12/01 01:18:12;;;;;;;14.70;10.40;;;5.50;99.90;;;;;;5091697;28;20212;-72
2020/12/01 01:20:37;;;;;;;12.33;10.07;;;5.50;99.90;;;;;;5090972;28;20189;-73
2020/12/01 01:23:03;;;;;;;12.63;9.03;;;5.50;99.90;;;;;;5091675;28;20170;-72
2020/12/01 01:25:28;;;;;;;15.13;11.30;;;5.60;99.90;;;;;;5090750;28;20184;-72
2020/12/01 01:27:54;;;;;;;15.47;11.10;;;5.60;99.90;;;;;;5089530;28;20220;-71
2020/12/01 01:30:23;;;;;;;12.37;10.70;;;5.60;99.90;;;;;;5089339;28;20197;-72
2020/12/01 01:32:49;;;;;;;14.90;11.47;;;5.50;99.90;;;;;;5093817;28;20197;-72
2020/12/01 01:35:15;;;;;;;15.20;10.83;;;5.60;99.90;;;;;;5093495;28;20516;-72
2020/12/01 01:37:41;;;;;;;20.00;12.00;;;5.50;99.90;;;;;;5093399;28;20428;-72
2020/12/01 01:40:07;;;;;;;16.80;12.93;;;5.50;99.90;;;;;;5092931;28;20427;-72
2020/12/01 01:42:33;;;;;;;14.73;10.30;;;5.60;99.90;;;;;;5087656;28;20227;-72
2020/12/01 01:44:59;;;;;;;18.77;11.10;;;5.60;99.90;;;;;;5088190;28;20770;-72
2020/12/01 01:47:26;;;;;;;17.90;11.60;;;5.70;99.90;;;;;;5094614;28;20280;-71
2020/12/01 01:50:04;;;;;;;17.87;13.13;;;5.60;99.90;;;;;;5093444;28;20466;-72
2020/12/01 01:52:36;;;;;;;18.67;12.63;;;5.60;99.90;;;;;;5094186;28;20424;-72
2020/12/01 01:55:08;;;;;;;24.07;14.23;;;5.60;99.90;;;;;;5094451;28;20469;-72
2020/12/01 01:57:34;;;;;;;18.60;13.00;;;5.60;99.90;;;;;;5093556;28;20424;-72
2020/12/01 02:00:00;;;;;;;22.20;14.23;;;5.60;99.90;;;;;;5093209;28;20430;-72
2020/12/01 02:02:26;;;;;;;20.50;13.97;;;5.70;99.90;;;;;;5093479;28;20435;-72
2020/12/01 02:04:51;;;;;;;18.07;15.33;;;5.70;99.90;;;;;;5094842;28;20178;-72
2020/12/01 02:07:19;;;;;;;22.60;14.40;;;5.60;99.90;;;;;;5094122;28;20928;-72
2020/12/01 02:09:49;;;;;;;18.93;14.10;;;5.70;99.90;;;;;;5093947;28;20215;-72
2020/12/01 02:12:17;;;;;;;22.33;15.77;;;5.70;99.90;;;;;;5093867;28;20427;-74
2020/12/01 02:14:58;;;;;;;20.93;13.13;;;5.60;99.90;;;;;;5094678;28;20412;-73
2020/12/01 02:17:33;;;;;;;23.33;16.57;;;5.70;99.90;;;;;;5094618;28;20419;-72
2020/12/01 02:20:19;;;;;;;21.60;14.03;;;5.70;99.90;;;;;;5090418;28;20762;-72
2020/12/01 02:22:51;;;;;;;23.17;15.03;;;5.70;99.90;;;;;;5092762;28;20451;-73
2020/12/01 02:25:18;;;;;;;21.60;15.50;;;5.80;99.90;;;;;;5094370;28;20920;-72
2020/12/01 02:27:51;;;;;;;23.77;16.73;;;5.70;99.90;;;;;;5096263;28;20439;-72
2020/12/01 02:30:19;;;;;;;24.47;16.23;;;5.70;99.90;;;;;;5092735;28;20455;-71
2020/12/01 02:32:45;;;;;;;23.93;16.30;;;5.70;99.90;;;;;;5092521;28;20534;-72
2020/12/01 02:35:11;;;;;;;25.43;16.87;;;5.70;99.90;;;;;;5093387;28;20502;-72
2020/12/01 02:37:38;;;;;;;22.50;14.67;;;5.70;99.90;;;;;;5091007;28;20458;-72
2020/12/01 02:40:14;;;;;;;34.53;16.70;;;5.70;99.90;;;;;;5088854;28;20423;-72
2020/12/01 02:42:40;;;;;;;29.77;17.80;;;5.80;99.90;;;;;;5095097;28;20427;-73
2020/12/01 02:45:06;;;;;;;23.20;15.63;;;5.80;99.90;;;;;;5090187;28;20435;-72
2020/12/01 02:47:32;;;;;;;26.17;16.50;;;5.80;99.90;;;;;;5086506;28;20943;-72
2020/12/01 02:49:57;;;;;;;27.33;17.00;;;5.80;99.90;;;;;;5092815;28;20243;-72
2020/12/01 02:52:23;;;;;;;25.53;16.93;;;5.80;99.90;;;;;;5092072;28;20204;-72
2020/12/01 02:54:50;;;;;;;26.47;16.57;;;5.80;99.90;;;;;;5088051;28;20661;-72
2020/12/01 02:57:16;;;;;;;23.80;17.67;;;5.90;99.90;;;;;;5092412;28;20448;-72
2020/12/01 02:59:42;;;;;;;21.30;15.47;;;5.80;99.90;;;;;;5091371;28;20509;-71
2020/12/01 03:02:08;;;;;;;24.37;16.97;;;5.80;99.90;;;;;;5090178;28;20436;-72
2020/12/01 03:04:33;;;;;;;24.20;16.83;;;5.80;99.90;;;;;;5092834;28;20249;-72
2020/12/01 03:06:59;;;;;;;29.93;19.67;;;5.80;99.90;;;;;;5092720;28;20188;-73
2020/12/01 03:09:24;;;;;;;28.83;20.57;;;5.90;99.90;;;;;;5092689;28;20198;-73
2020/12/01 03:11:50;;;;;;;30.33;17.10;;;6.00;99.90;;;;;;5092342;28;20536;-72
2020/12/01 03:14:17;;;;;;;27.13;17.63;;;5.90;99.90;;;;;;5093547;28;20177;-72
2020/12/01 03:16:43;;;;;;;28.60;18.13;;;5.90;99.90;;;;;;5092635;28;20176;-72
2020/12/01 03:19:08;;;;;;;23.63;16.20;;;5.90;99.90;;;;;;5093190;28;20530;-72
2020/12/01 03:21:34;;;;;;;28.17;18.97;;;6.00;99.90;;;;;;5091469;28;20174;-71
2020/12/01 03:24:00;;;;;;;30.07;18.60;;;6.00;99.90;;;;;;5092573;28;20182;-72
2020/12/01 03:26:26;;;;;;;23.50;17.87;;;6.10;99.90;;;;;;5091588;28;20835;-72
2020/12/01 03:28:51;;;;;;;25.00;17.43;;;6.20;99.90;;;;;;5091565;28;20202;-72
2020/12/01 03:31:19;;;;;;;24.33;17.60;;;6.30;99.90;;;;;;5089428;28;20543;-72
2020/12/01 03:33:46;;;;;;;19.73;15.17;;;6.40;99.90;;;;;;5091493;28;20201;-72
2020/12/01 03:36:11;;;;;;;25.67;16.67;;;6.40;99.90;;;;;;5092160;28;20435;-73
2020/12/01 03:38:37;;;;;;;23.80;17.20;;;6.50;99.90;;;;;;5089864;28;20496;-72
2020/12/01 03:41:03;;;;;;;24.57;16.43;;;6.40;99.90;;;;;;5090699;28;20713;-72
2020/12/01 03:43:29;;;;;;;28.50;17.27;;;6.50;99.90;;;;;;5092078;28;20185;-73
2020/12/01 03:45:55;;;;;;;23.83;16.87;;;6.40;99.90;;;;;;5092406;28;20489;-73
2020/12/01 03:48:20;;;;;;;24.27;17.70;;;6.40;99.90;;;;;;5090586;28;20205;-72
2020/12/01 03:50:46;;;;;;;24.57;16.07;;;6.40;99.90;;;;;;5085734;28;20185;-72
2020/12/01 03:53:12;;;;;;;18.37;16.03;;;6.50;99.90;;;;;;5091492;28;20165;-73
2020/12/01 03:55:37;;;;;;;18.83;13.70;;;6.60;99.90;;;;;;5091511;28;20665;-72
2020/12/01 03:58:03;;;;;;;14.47;11.57;;;6.50;99.90;;;;;;5091939;28;20552;-72
2020/12/01 04:00:30;;;;;;;15.63;11.80;;;6.60;99.90;;;;;;5092414;28;20192;-72
2020/12/01 04:02:56;;;;;;;16.93;11.13;;;6.70;99.90;;;;;;5091104;28;20292;-73
2020/12/01 04:05:24;;;;;;;14.70;11.60;;;6.70;99.90;;;;;;5090753;28;20423;-73
2020/12/01 04:07:55;;;;;;;15.67;10.87;;;6.80;99.90;;;;;;5092093;28;20498;-73
2020/12/01 04:10:22;;;;;;;21.87;12.87;;;6.80;99.90;;;;;;5090899;28;21085;-72
2020/12/01 04:12:48;;;;;;;22.17;11.90;;;6.90;99.90;;;;;;5088400;28;20517;-73
2020/12/01 04:15:15;;;;;;;18.37;11.33;;;6.90;99.90;;;;;;5079221;28;20473;-72
2020/12/01 04:17:41;;;;;;;17.70;10.47;;;7.00;99.90;;;;;;5091956;28;20419;-72
2020/12/01 04:20:07;;;;;;;19.30;11.10;;;6.90;99.90;;;;;;5090967;28;20431;-72
2020/12/01 04:22:33;;;;;;;16.90;9.53;;;7.00;99.90;;;;;;5091850;28;20165;-72
2020/12/01 04:25:00;;;;;;;12.40;8.30;;;7.10;99.90;;;;;;5091484;28;20427;-72
2020/12/01 04:27:25;;;;;;;13.47;8.70;;;7.10;99.90;;;;;;5090613;28;20173;-72
2020/12/01 04:29:51;;;;;;;14.10;8.63;;;7.10;99.90;;;;;;5089216;28;21044;-73
2020/12/01 04:32:17;;;;;;;14.00;9.03;;;7.20;99.90;;;;;;5090672;28;20824;-73
2020/12/01 04:34:42;;;;;;;12.83;8.37;;;7.10;99.90;;;;;;5089981;28;20161;-72
2020/12/01 04:37:09;;;;;;;12.67;7.30;;;7.20;99.90;;;;;;5089621;28;20231;-73
2020/12/01 04:39:34;;;;;;;15.30;7.67;;;7.20;99.90;;;;;;5086758;28;20284;-72
2020/12/01 04:42:01;;;;;;;12.90;6.20;;;7.30;99.90;;;;;;5089810;28;20534;-72
2020/12/01 04:44:31;;;;;;;7.43;5.50;;;7.30;99.90;;;;;;5089333;28;20173;-73
2020/12/01 04:47:05;;;;;;;11.73;6.20;;;7.30;99.90;;;;;;5083914;28;20431;-72
2020/12/01 04:49:45;;;;;;;8.70;5.80;;;7.30;99.90;;;;;;5089787;28;20860;-72
2020/12/01 04:52:20;;;;;;;9.33;4.30;;;7.30;99.90;;;;;;5090589;28;20836;-73
2020/12/01 04:55:16;;;;;;;3.50;3.10;;;7.30;99.90;;;;;;5091896;28;20423;-72
2020/12/01 04:58:00;;;;;;;8.03;4.00;;;7.30;99.90;;;;;;5090885;28;20415;-72
2020/12/01 05:01:16;;;;;;;7.63;3.50;;;7.30;99.90;;;;;;5090857;28;20419;-73
2020/12/01 05:03:47;;;;;;;6.70;4.47;;;7.30;99.90;;;;;;5028545;28;20434;-73
2020/12/01 05:09:17;;;;;;;10.33;5.10;;;7.30;99.90;;;;;;5095033;28;20462;-72
2020/12/01 05:11:54;;;;;;;13.33;6.50;;;7.30;99.90;;;;;;5093386;28;20558;-72
2020/12/01 05:14:36;;;;;;;9.00;5.67;;;7.30;99.90;;;;;;5095569;28;20419;-72
2020/12/01 05:17:23;;;;;;;16.87;6.87;;;7.30;99.90;;;;;;5093398;28;20431;-72
2020/12/01 05:19:48;;;;;;;11.20;7.67;;;7.30;99.90;;;;;;5094259;28;20434;-72
2020/12/01 05:22:17;;;;;;;10.67;7.90;;;7.30;99.90;;;;;;5093891;28;20435;-73
2020/12/01 05:24:44;;;;;;;19.83;8.70;;;7.30;99.90;;;;;;5093906;28;20268;-72
2020/12/01 05:27:28;;;;;;;12.33;7.67;;;7.40;99.90;;;;;;5094914;28;20423;-73
2020/12/01 05:29:58;;;;;;;8.43;6.90;;;7.30;99.90;;;;;;5094724;28;20481;-73
2020/12/01 05:32:40;;;;;;;8.40;6.60;;;7.30;99.90;;;;;;5093666;28;21001;-72
2020/12/01 05:35:20;;;;;;;8.67;6.87;;;7.40;99.90;;;;;;5094161;28;20427;-72
2020/12/01 05:37:53;;;;;;;16.43;9.47;;;7.40;99.90;;;;;;5092303;28;20996;-72
2020/12/01 05:40:19;;;;;;;16.40;8.20;;;7.40;99.90;;;;;;5094258;28;20506;-72
2020/12/01 05:42:45;;;;;;;16.83;8.37;;;7.40;99.90;;;;;;5094618;28;20522;-72
2020/12/01 05:45:25;;;;;;;14.60;8.30;;;7.50;99.90;;;;;;5095325;28;20506;-72
2020/12/01 05:48:34;;;;;;;16.57;9.43;;;7.50;99.90;;;;;;5094120;28;20443;-72
2020/12/01 05:51:08;;;;;;;16.57;8.50;;;7.50;99.90;;;;;;5091636;28;20439;-73
2020/12/01 05:53:34;;;;;;;13.10;9.93;;;7.50;99.90;;;;;;5095005;28;20418;-73
2020/12/01 05:56:12;;;;;;;19.50;8.43;;;7.50;99.90;;;;;;5088130;28;20795;-72
2020/12/01 05:58:42;;;;;;;14.03;8.20;;;7.50;99.90;;;;;;5092612;28;20197;-72
2020/12/01 06:01:08;;;;;;;12.27;6.50;;;7.50;99.90;;;;;;5092038;28;20873;-73
2020/12/01 06:04:07;;;;;;;18.37;8.40;;;7.60;99.90;;;;;;5094285;28;20526;-73
2020/12/01 06:07:01;;;;;;;11.47;8.77;;;7.50;99.90;;;;;;5087780;28;20185;-72
2020/12/01 06:09:51;;;;;;;15.10;9.83;;;7.50;99.90;;;;;;5082636;28;20454;-73
2020/12/01 06:12:20;;;;;;;13.50;9.60;;;7.60;99.90;;;;;;5093788;28;20458;-73
2020/12/01 06:14:57;;;;;;;15.53;9.97;;;7.60;99.90;;;;;;5094037;28;20473;-72
2020/12/01 06:17:59;;;;;;;15.87;9.87;;;7.60;99.90;;;;;;5091710;28;20423;-73
2020/12/01 06:20:39;;;;;;;16.73;10.80;;;7.70;99.90;;;;;;5093804;28;20443;-72
2020/12/01 06:23:26;;;;;;;24.23;11.37;;;7.70;99.90;;;;;;5092384;28;20481;-72
2020/12/01 06:26:29;;;;;;;19.60;9.60;;;7.60;99.90;;;;;;5092832;28;20435;-73
2020/12/01 06:29:32;;;;;;;23.53;10.70;;;7.70;99.90;;;;;;5092325;28;20466;-72
2020/12/01 06:32:23;;;;;;;26.30;11.87;;;7.60;99.90;;;;;;5093407;28;20986;-72
2020/12/01 06:35:10;;;;;;;26.77;11.23;;;7.50;99.90;;;;;;5091565;28;20515;-73
2020/12/01 06:37:46;;;;;;;18.50;9.47;;;7.60;99.90;;;;;;5084675;28;20979;-72
2020/12/01 06:40:36;;;;;;;18.20;11.30;;;7.50;99.90;;;;;;5093074;28;21180;-72
2020/12/01 06:43:29;;;;;;;21.67;12.73;;;7.60;99.90;;;;;;5083524;28;20777;-72
2020/12/01 06:45:57;;;;;;;20.60;10.10;;;7.60;99.90;;;;;;5086128;28;20450;-73
2020/12/01 06:48:38;;;;;;;21.80;10.10;;;7.60;99.90;;;;;;5092811;28;21043;-72
2020/12/01 06:51:05;;;;;;;20.33;10.77;;;7.60;99.90;;;;;;5091790;28;20518;-72
2020/12/01 06:53:36;;;;;;;19.73;10.13;;;7.60;99.90;;;;;;5093271;28;20466;-72
2020/12/01 06:56:04;;;;;;;30.13;11.60;;;7.50;99.90;;;;;;5092881;28;20481;-73
2020/12/01 06:58:58;;;;;;;24.60;10.80;;;7.50;99.90;;;;;;5090198;28;20814;-72
2020/12/01 07:01:32;;;;;;;17.63;9.50;;;7.50;99.90;;;;;;5086428;28;20420;-73
2020/12/01 07:04:15;;;;;;;19.47;9.80;;;7.40;99.90;;;;;;5093092;28;20458;-72
2020/12/01 07:06:44;;;;;;;21.47;9.37;;;7.40;99.90;;;;;;5092543;28;20431;-73
2020/12/01 07:09:27;;;;;;;18.50;11.17;;;7.40;99.90;;;;;;5091634;28;20451;-73
2020/12/01 07:12:02;;;;;;;22.17;11.60;;;7.40;99.90;;;;;;5093207;28;20442;-73
2020/12/01 07:14:38;;;;;;;14.67;9.40;;;7.40;99.90;;;;;;5090384;28;20419;-72
2020/12/01 07:17:20;;;;;;;25.33;12.17;;;7.40;99.90;;;;;;5090846;28;20428;-72
2020/12/01 07:20:16;;;;;;;21.43;11.30;;;7.40;99.90;;;;;;5093251;28;20440;-72
2020/12/01 07:23:13;;;;;;;20.73;10.90;;;7.40;99.90;;;;;;5083535;28;20431;-72
2020/12/01 07:26:00;;;;;;;24.57;10.40;;;7.50;99.90;;;;;;5073017;28;20447;-72
2020/12/01 07:28:25;;;;;;;19.20;10.63;;;7.50;99.90;;;;;;5092602;28;20857;-72
2020/12/01 07:30:59;;;;;;;19.27;11.40;;;7.50;99.90;;;;;;5089659;28;20427;-72
2020/12/01 07:33:30;;;;;;;23.43;11.27;;;7.50;99.90;;;;;;5091105;28;20165;-72
2020/12/01 07:36:10;;;;;;;23.67;10.67;;;7.50;99.90;;;;;;5091152;28;20435;-71
2020/12/01 07:38:42;;;;;;;31.57;12.40;;;7.40;99.90;;;;;;5092063;28;20497;-72
2020/12/01 07:41:27;;;;;;;28.93;10.20;;;7.40;99.90;;;;;;5090998;28;20439;-72
2020/12/01 07:44:03;;;;;;;26.70;11.00;;;7.40;99.90;;;;;;5092662;28;20431;-72
2020/12/01 07:46:30;;;;;;;20.00;11.73;;;7.50;99.90;;;;;;5091720;28;20924;-73
2020/12/01 07:48:57;;;;;;;26.00;11.37;;;7.40;99.90;;;;;;5091717;28;20480;-74
2020/12/01 07:51:23;;;;;;;21.80;10.53;;;7.50;99.90;;;;;;5092789;28;20463;-73
2020/12/01 07:53:51;;;;;;;21.47;10.10;;;7.60;99.90;;;;;;5093228;28;20435;-73
2020/12/01 07:56:20;;;;;;;34.03;12.40;;;7.50;99.90;;;;;;5093106;28;20173;-72
2020/12/01 07:59:01;;;;;;;28.80;11.07;;;7.60;99.90;;;;;;5092498;28;20499;-73
2020/12/01 08:01:27;;;;;;;25.17;12.80;;;7.60;99.90;;;;;;5091396;28;20430;-72
2020/12/01 08:04:04;;;;;;;28.50;12.50;;;7.70;99.90;;;;;;5090597;28;20928;-72
2020/12/01 08:06:29;;;;;;;29.23;11.87;;;7.60;99.90;;;;;;5091069;28;20177;-72
2020/12/01 08:08:55;;;;;;;23.87;12.90;;;7.70;99.90;;;;;;5092036;28;20455;-72
2020/12/01 08:11:22;;;;;;;23.47;13.90;;;7.60;99.90;;;;;;5091332;28;20577;-72
2020/12/01 08:13:53;;;;;;;20.33;12.60;;;7.70;99.90;;;;;;5091600;28;20196;-73
2020/12/01 08:16:27;;;;;;;28.53;12.30;;;7.70;99.90;;;;;;5091302;28;20545;-73
2020/12/01 08:18:54;;;;;;;29.90;12.83;;;7.70;99.90;;;;;;5092906;28;20447;-73
2020/12/01 08:21:36;;;;;;;22.57;11.37;;;7.60;99.90;;;;;;5091325;28;20432;-74
2020/12/01 08:24:06;;;;;;;22.03;11.50;;;7.70;99.90;;;;;;5090184;28;20431;-72
2020/12/01 08:26:36;;;;;;;26.53;13.90;;;7.70;99.90;;;;;;5090477;28;20446;-72
2020/12/01 08:29:24;;;;;;;22.80;12.97;;;7.80;99.90;;;;;;5090713;28;20452;-72
2020/12/01 08:31:59;;;;;;;17.70;12.20;;;7.80;99.90;;;;;;5089947;28;20427;-72
2020/12/01 08:34:37;;;;;;;20.23;12.70;;;7.90;99.90;;;;;;5089297;28;20772;-72
2020/12/01 08:37:07;;;;;;;25.27;11.97;;;7.80;99.90;;;;;;5089474;28;20476;-72
2020/12/01 08:39:40;;;;;;;23.43;12.53;;;7.80;99.90;;;;;;5074692;28;20476;-74
2020/12/01 08:42:14;;;;;;;19.40;11.70;;;7.80;99.90;;;;;;5091761;28;20416;-72
2020/12/01 08:45:01;;;;;;;24.87;13.20;;;7.90;99.90;;;;;;5089689;28;20430;-73
2020/12/01 08:47:28;;;;;;;27.03;12.07;;;7.90;99.90;;;;;;5091284;28;20502;-72
2020/12/01 08:49:54;;;;;;;20.27;11.33;;;8.00;99.90;;;;;;5090996;28;20983;-72
2020/12/01 08:52:38;;;;;;;20.50;11.50;;;8.00;99.90;;;;;;5090654;28;20447;-72
2020/12/01 08:55:26;;;;;;;28.27;14.00;;;8.00;99.90;;;;;;5087121;28;20422;-72
2020/12/01 08:58:07;;;;;;;25.60;15.13;;;8.00;99.90;;;;;;5091366;28;20454;-72
2020/12/01 09:00:34;;;;;;;20.10;12.50;;;8.10;99.90;;;;;;5088173;28;20474;-72
2020/12/01 09:03:10;;;;;;;25.10;12.97;;;8.10;99.90;;;;;;5091823;28;20427;-72
2020/12/01 09:05:46;;;;;;;24.20;11.93;;;8.10;99.90;;;;;;5085787;28;20443;-72
2020/12/01 09:08:43;;;;;;;21.60;13.10;;;8.10;99.90;;;;;;5086474;28;20465;-72
2020/12/01 09:20:13;;;;;;;18.53;12.23;;;8.20;99.90;;;;;;5089535;28;20459;-72
2020/12/01 09:22:11;;;;;;;28.90;14.60;;;8.20;99.90;;;;;;5076875;28;20203;-72
2020/12/01 09:24:37;;;;;;;28.00;14.13;;;8.10;99.90;;;;;;5089919;28;21046;-72
2020/12/01 09:27:07;;;;;;;16.30;12.30;;;8.20;99.90;;;;;;5090589;28;20449;-72
2020/12/01 09:29:33;;;;;;;25.10;13.13;;;8.20;99.90;;;;;;5089740;28;20823;-72
2020/12/01 09:31:59;;;;;;;23.27;11.77;;;8.30;99.90;;;;;;5088753;28;20846;-73
2020/12/01 09:34:29;;;;;;;23.27;12.50;;;8.30;99.90;;;;;;5089372;28;20499;-72
2020/12/01 09:37:01;;;;;;;20.33;9.67;;;8.40;99.90;;;;;;5085897;28;22008;-72
2020/12/01 09:39:27;;;;;;;23.03;9.80;;;8.50;99.90;;;;;;5088709;28;22146;-72
2020/12/01 09:42:02;;;;;;;14.53;8.13;;;8.60;99.90;;;;;;5088062;28;20495;-72
2020/12/01 09:47:09;;;;;;;14.43;7.80;;;8.80;99.90;;;;;;5089483;28;20469;-72
2020/12/01 09:49:35;;;;;;;10.00;7.00;;;8.80;99.90;;;;;;5088640;28;20467;-72
2020/12/01 09:52:26;;;;;;;16.83;7.10;;;8.70;99.90;;;;;;5088469;28;20472;-72
2020/12/01 09:57:21;;;;;;;15.30;8.40;;;8.60;99.90;;;;;;5093656;28;20443;-72
2020/12/01 10:00:01;;;;;;;23.97;9.60;;;8.60;99.90;;;;;;5093712;28;20775;-72
2020/12/01 10:16:37;;;;;;;19.50;11.27;;;8.80;99.90;;;;;;5093104;28;20442;-72
2020/12/01 10:19:49;;;;;;;27.33;11.13;;;8.80;99.90;;;;;;5090360;28;20455;-72
2020/12/01 10:34:45;;;;;;;17.40;10.13;;;9.20;99.90;;;;;;5092313;28;20432;-72
2020/12/01 10:37:11;;;;;;;22.90;10.97;;;9.30;99.90;;;;;;5090064;28;20908;-73
2020/12/01 10:39:37;;;;;;;16.30;9.87;;;9.30;99.90;;;;;;5092252;28;20447;-73
2020/12/01 10:42:10;;;;;;;15.97;9.30;;;9.40;99.90;;;;;;5093333;28;20189;-73
2020/12/01 10:44:35;;;;;;;17.07;9.73;;;9.40;99.90;;;;;;5093708;28;20306;-73
2020/12/01 10:47:01;;;;;;;19.57;12.20;;;9.30;99.90;;;;;;5093183;28;20506;-73
2020/12/01 10:49:27;;;;;;;16.97;11.60;;;9.30;99.90;;;;;;5092923;28;20201;-73
2020/12/01 10:51:53;;;;;;;21.53;11.67;;;9.50;99.90;;;;;;5091988;28;20593;-72
2020/12/01 10:54:18;;;;;;;16.37;11.20;;;9.60;99.90;;;;;;5092192;28;20173;-72
2020/12/01 10:56:48;;;;;;;18.00;10.80;;;9.60;99.90;;;;;;5082816;28;20431;-73
2020/12/01 10:59:14;;;;;;;14.20;9.47;;;9.60;99.90;;;;;;5093775;28;20189;-73
2020/12/01 11:01:40;;;;;;;14.63;9.20;;;9.70;99.90;;;;;;5085109;28;20483;-72
2020/12/01 11:04:06;;;;;;;11.10;7.73;;;9.60;99.90;;;;;;5091631;28;20463;-73
2020/12/01 11:06:31;;;;;;;11.37;7.57;;;9.80;99.90;;;;;;5090990;28;20614;-73
2020/12/01 11:08:57;;;;;;;11.00;8.37;;;9.70;99.90;;;;;;5091452;28;20655;-73
2020/12/01 11:11:23;;;;;;;8.40;6.67;;;9.80;99.90;;;;;;5090400;28;20170;-73
2020/12/01 11:13:48;;;;;;;13.37;8.53;;;9.70;99.90;;;;;;5085984;28;20191;-72
2020/12/01 11:16:14;;;;;;;9.83;7.00;;;9.90;99.90;;;;;;5091985;28;20634;-73
2020/12/01 11:18:40;;;;;;;10.50;8.03;;;10.10;99.90;;;;;;5092091;28;20182;-72
2020/12/01 11:21:06;;;;;;;7.93;7.00;;;10.10;99.90;;;;;;5091919;28;20170;-73
2020/12/01 11:23:32;;;;;;;9.23;7.10;;;10.20;99.90;;;;;;5091139;28;20430;-73
2020/12/01 11:25:57;;;;;;;8.13;6.60;;;10.30;99.90;;;;;;5090951;28;20173;-73
2020/12/01 11:28:23;;;;;;;9.30;5.93;;;10.20;99.90;;;;;;5091382;28;20580;-73
2020/12/01 11:30:49;;;;;;;7.37;6.50;;;10.20;99.90;;;;;;5090446;28;20196;-73
2020/12/01 11:33:15;;;;;;;7.77;4.83;;;10.10;99.90;;;;;;5090373;28;20260;-73
2020/12/01 11:35:40;;;;;;;6.67;5.00;;;10.00;99.90;;;;;;5090533;28;20215;-73
2020/12/01 11:38:06;;;;;;;5.93;4.67;;;10.00;99.90;;;;;;5089108;28;20837;-73
2020/12/01 11:40:32;;;;;;;5.10;4.60;;;10.00;99.90;;;;;;5090361;28;20205;-72
2020/12/01 11:42:57;;;;;;;8.57;4.80;;;9.90;99.90;;;;;;5091266;28;20181;-72
2020/12/01 11:45:23;;;;;;;6.13;4.73;;;9.70;99.90;;;;;;5090800;28;22484;-73
2020/12/01 11:47:48;;;;;;;6.83;5.57;;;9.70;99.90;;;;;;5090850;28;20181;-72
2020/12/01 11:50:14;;;;;;;5.27;4.33;;;9.60;99.90;;;;;;5091071;28;20193;-72
2020/12/01 11:52:40;;;;;;;9.00;5.20;;;9.60;99.90;;;;;;5090063;28;20252;-72
2020/12/01 11:55:07;;;;;;;6.93;5.00;;;9.70;99.90;;;;;;5089704;28;20177;-72
2020/12/01 11:57:33;;;;;;;9.40;5.13;;;9.60;99.90;;;;;;5091564;28;20778;-73
2020/12/01 11:59:59;;;;;;;8.53;5.80;;;9.60;99.90;;;;;;5091509;28;20461;-72
2020/12/01 12:02:24;;;;;;;9.03;6.23;;;9.60;99.90;;;;;;5088206;28;20435;-72
2020/12/01 12:04:50;;;;;;;6.67;5.97;;;9.60;99.90;;;;;;5090059;28;20216;-72
2020/12/01 12:07:16;;;;;;;9.10;5.83;;;9.60;99.90;;;;;;5090674;28;20264;-72
2020/12/01 12:09:41;;;;;;;7.00;5.70;;;9.70;99.90;;;;;;5088795;28;20307;-72
2020/12/01 12:12:07;;;;;;;7.43;4.70;;;9.60;99.90;;;;;;5089636;28;20177;-73
2020/12/01 12:14:33;;;;;;;9.53;4.97;;;9.60;99.90;;;;;;5088370;28;20164;-72
2020/12/01 12:16:58;;;;;;;5.60;4.30;;;9.60;99.90;;;;;;5085134;28;20544;-72
2020/12/01 12:19:24;;;;;;;6.80;4.50;;;9.60;99.90;;;;;;5090684;28;20216;-72
2020/12/01 12:21:50;;;;;;;6.90;4.70;;;9.60;99.90;;;;;;5089741;28;20181;-72
2020/12/01 12:24:15;;;;;;;6.40;5.57;;;9.60;99.90;;;;;;5090065;28;20196;-72
2020/12/01 12:26:41;;;;;;;7.60;5.47;;;9.70;99.90;;;;;;5090768;28;20203;-72
2020/12/01 12:29:07;;;;;;;6.80;4.93;;;9.70;99.90;;;;;;5089956;28;20669;-72
2020/12/01 12:31:33;;;;;;;7.60;4.93;;;9.70;99.90;;;;;;5088784;28;20453;-72
2020/12/01 12:33:58;;;;;;;6.00;5.00;;;9.70;99.90;;;;;;5089447;28;20282;-72
2020/12/01 12:36:24;;;;;;;6.77;5.97;;;9.70;99.90;;;;;;5088300;28;20215;-72
2020/12/01 12:38:50;;;;;;;6.10;5.50;;;9.70;99.90;;;;;;5089539;28;20202;-72
2020/12/01 12:41:16;;;;;;;7.30;5.63;;;9.70;99.90;;;;;;5090212;28;20181;-72
2020/12/01 12:43:42;;;;;;;7.10;5.73;;;9.70;99.90;;;;;;5088415;28;21251;-72
2020/12/01 12:46:07;;;;;;;7.17;5.43;;;9.70;99.90;;;;;;5088538;28;20673;-72
2020/12/01 12:48:33;;;;;;;6.60;5.90;;;9.70;99.90;;;;;;5086516;28;20263;-72
2020/12/01 12:50:59;;;;;;;5.07;4.57;;;9.70;99.90;;;;;;5089091;28;20309;-72
2020/12/01 12:53:25;;;;;;;7.20;4.90;;;9.70;99.90;;;;;;5090912;28;20172;-72
2020/12/01 12:55:51;;;;;;;6.43;5.83;;;9.70;99.90;;;;;;5090159;28;20430;-72
2020/12/01 12:58:17;;;;;;;7.13;5.13;;;9.70;99.90;;;;;;5090817;28;20276;-72
2020/12/01 13:00:42;;;;;;;4.93;4.17;;;9.50;99.90;;;;;;5088382;28;20443;-72
2020/12/01 13:03:08;;;;;;;8.77;4.57;;;9.60;99.90;;;;;;5089929;28;20432;-72
2020/12/01 13:05:33;;;;;;;5.80;4.80;;;9.60;99.90;;;;;;5088253;28;20219;-72
2020/12/01 13:07:59;;;;;;;8.07;6.93;;;9.60;99.90;;;;;;5083418;28;20284;-72
2020/12/01 13:10:26;;;;;;;6.57;5.43;;;9.60;99.90;;;;;;5087449;28;20200;-72
2020/12/01 13:12:51;;;;;;;6.40;5.80;;;9.70;99.90;;;;;;5089858;28;20170;-72
2020/12/01 13:15:18;;;;;;;6.70;5.60;;;9.70;99.90;;;;;;5089846;28;20536;-72
2020/12/01 13:17:44;;;;;;;6.33;4.87;;;9.70;99.90;;;;;;5079526;28;20184;-72
2020/12/01 13:20:23;;;;;;;6.70;4.93;;;9.60;99.90;;;;;;5083109;28;20545;-72
2020/12/01 13:22:48;;;;;;;4.70;4.30;;;9.60;99.90;;;;;;5089090;28;21212;-72
2020/12/01 13:25:15;;;;;;;4.40;3.80;;;9.60;99.90;;;;;;5089793;28;20454;-73
2020/12/01 13:27:40;;;;;;;6.67;4.40;;;9.70;99.90;;;;;;5093611;28;20201;-72
2020/12/01 13:30:09;;;;;;;7.80;3.37;;;9.70;99.90;;;;;;5091842;28;20482;-72
2020/12/01 13:32:35;;;;;;;4.23;2.93;;;9.60;99.90;;;;;;5092848;28;20181;-72
2020/12/01 13:35:01;;;;;;;4.40;2.90;;;9.60;99.90;;;;;;5093713;28;20428;-72
2020/12/01 13:37:27;;;;;;;4.47;2.90;;;9.60;99.90;;;;;;5091554;28;20740;-72
2020/12/01 13:39:53;;;;;;;4.00;3.43;;;9.60;99.90;;;;;;5093110;28;20481;-72
2020/12/01 13:42:18;;;;;;;10.47;2.97;;;9.50;99.90;;;;;;5092662;28;20431;-72